createdAt,value
2022-08-05T00:00:18.434Z,25.36
2022-08-05T00:02:50.505Z,25.32
2022-08-05T00:05:27.251Z,25.41
2022-08-05T00:08:34.169Z,25.43
2022-08-05T00:11:00.569Z,25.45
2022-08-05T00:13:39.153Z,25.47
2022-08-05T00:16:11.100Z,25.49
2022-08-05T00:18:44.872Z,25.52
2022-08-05T00:21:12.098Z,25.56
2022-08-05T00:23:45.973Z,25.53
2022-08-05T00:26:24.597Z,25.59
2022-08-05T00:28:51.390Z,25.60
2022-08-05T00:31:53.370Z,25.63
2022-08-05T00:34:56.057Z,25.63
2022-08-05T00:37:10.662Z,25.63
2022-08-05T00:39:44.182Z,25.55
2022-08-05T00:42:33.827Z,25.58
2022-08-05T00:45:01.281Z,25.62
2022-08-05T00:47:31.611Z,25.66
2022-08-05T00:50:16.999Z,25.63
2022-08-05T00:52:45.509Z,25.65
2022-08-05T00:55:13.808Z,25.68
2022-08-05T00:57:58.179Z,25.61
2022-08-05T01:00:27.854Z,25.67
2022-08-05T01:02:54.922Z,25.64
2022-08-05T01:05:24.038Z,25.61
2022-08-05T01:08:29.892Z,25.59
2022-08-05T01:10:58.069Z,25.61
2022-08-05T01:13:57.983Z,25.60
2022-08-05T01:16:53.944Z,25.59
2022-08-05T01:19:56.596Z,25.56
2022-08-05T01:22:23.858Z,25.50
2022-08-05T01:24:53.178Z,25.44
2022-08-05T01:27:55.895Z,25.30
2022-08-05T01:30:33.601Z,25.23
2022-08-05T01:33:08.315Z,25.21
2022-08-05T01:35:50.678Z,24.88
2022-08-05T01:38:26.885Z,25.04
2022-08-05T01:40:59.358Z,24.90
2022-08-05T01:43:28.064Z,24.98
2022-08-05T01:45:57.255Z,24.94
2022-08-05T01:48:29.545Z,24.88
2022-08-05T01:50:58.042Z,24.90
2022-08-05T01:53:54.685Z,24.83
2022-08-05T01:58:10.383Z,24.67
2022-08-05T01:59:20.197Z,24.11
2022-08-05T02:01:49.631Z,24.17
2022-08-05T02:04:19.551Z,24.32
2022-08-05T02:06:46.513Z,24.29
2022-08-05T02:09:17.277Z,24.36
2022-08-05T02:12:01.675Z,24.35
2022-08-05T02:14:32.414Z,24.39
2022-08-05T02:17:29.902Z,24.20
2022-08-05T02:20:05.863Z,24.20
2022-08-05T02:22:59.659Z,24.19
2022-08-05T02:25:33.822Z,24.19
2022-08-05T02:28:28.291Z,24.13
2022-08-05T02:31:01.394Z,24.11
2022-08-05T02:33:36.133Z,24.08
2022-08-05T02:36:13.351Z,24.13
2022-08-05T02:38:53.140Z,24.09
2022-08-05T02:41:22.985Z,24.12
2022-08-05T02:44:02.883Z,23.91
2022-08-05T02:46:36.528Z,23.91
2022-08-05T02:49:22.004Z,23.78
2022-08-05T02:52:03.034Z,23.77
2022-08-05T02:54:37.251Z,23.70
2022-08-05T02:58:12.296Z,23.74
2022-08-05T03:00:01.266Z,23.86
2022-08-05T03:02:39.758Z,23.84
2022-08-05T03:05:12.742Z,23.87
2022-08-05T03:08:06.868Z,23.71
2022-08-05T03:10:31.091Z,23.73
2022-08-05T03:15:28.347Z,23.71
2022-08-05T03:17:57.815Z,23.72
2022-08-05T03:20:26.974Z,23.68
2022-08-05T03:22:58.111Z,23.52
2022-08-05T03:25:33.053Z,23.46
2022-08-05T03:28:18.737Z,23.64
2022-08-05T03:30:49.683Z,23.68
2022-08-05T03:33:20.244Z,23.62
2022-08-05T03:35:49.901Z,23.70
2022-08-05T03:38:32.943Z,23.69
2022-08-05T03:41:08.272Z,23.68
2022-08-05T03:44:08.789Z,23.67
2022-08-05T03:46:26.839Z,23.56
2022-08-05T03:48:57.203Z,23.60
2022-08-05T03:52:49.230Z,23.62
2022-08-05T03:55:52.749Z,23.57
2022-08-05T03:57:28.988Z,23.50
2022-08-05T03:59:58.338Z,23.20
2022-08-05T04:02:38.415Z,23.29
2022-08-05T04:05:09.684Z,23.24
2022-08-05T04:07:58.028Z,23.18
2022-08-05T04:10:33.315Z,23.10
2022-08-05T04:13:04.608Z,23.10
2022-08-05T04:15:36.154Z,23.00
2022-08-05T04:18:09.747Z,22.95
2022-08-05T04:20:41.335Z,22.88
2022-08-05T04:23:12.673Z,22.81
2022-08-05T04:26:00.224Z,22.72
2022-08-05T04:28:32.847Z,22.74
2022-08-05T04:31:01.253Z,22.70
2022-08-05T04:34:18.975Z,22.72
2022-08-05T04:36:44.731Z,22.74
2022-08-05T04:39:08.158Z,22.77
2022-08-05T04:41:38.651Z,22.71
2022-08-05T04:44:10.200Z,22.68
2022-08-05T04:46:40.170Z,22.69
2022-08-05T04:49:12.291Z,22.69
2022-08-05T04:51:43.079Z,22.60
2022-08-05T04:54:10.105Z,22.70
2022-08-05T04:56:40.978Z,22.74
2022-08-05T04:59:21.824Z,22.82
2022-08-05T05:02:07.079Z,22.76
2022-08-05T05:04:43.940Z,22.56
2022-08-05T05:07:15.933Z,22.65
2022-08-05T05:09:44.076Z,22.73
2022-08-05T05:12:11.695Z,22.82
2022-08-05T05:14:49.573Z,22.86
2022-08-05T05:17:24.285Z,22.86
2022-08-05T05:19:56.574Z,23.23
2022-08-05T05:22:26.507Z,24.11
2022-08-05T05:24:57.052Z,25.38
2022-08-05T05:27:44.331Z,25.24
2022-08-05T05:30:15.518Z,25.17
2022-08-05T05:33:00.972Z,25.12
2022-08-05T05:35:38.101Z,25.54
2022-08-05T05:38:09.063Z,25.98
2022-08-05T05:40:36.235Z,26.64
2022-08-05T05:43:03.041Z,26.90
2022-08-05T05:45:29.930Z,26.74
2022-08-05T05:48:06.409Z,26.14
2022-08-05T05:50:41.088Z,26.63
2022-08-05T05:53:21.328Z,26.52
2022-08-05T05:56:00.701Z,26.23
2022-08-05T05:58:31.681Z,25.69
2022-08-05T06:01:02.497Z,25.34
2022-08-05T06:04:00.924Z,24.77
2022-08-05T06:06:31.116Z,25.61
2022-08-05T06:08:58.344Z,25.38
2022-08-05T06:11:29.070Z,26.59
2022-08-05T06:14:03.109Z,28.30
2022-08-05T06:16:32.683Z,28.91
2022-08-05T06:19:07.492Z,29.24
2022-08-05T06:21:38.790Z,30.11
2022-08-05T06:24:11.207Z,28.81
2022-08-05T06:26:39.938Z,28.41
2022-08-05T06:29:42.838Z,27.49
2022-08-05T06:32:04.759Z,27.41
2022-08-05T06:34:42.383Z,27.72
2022-08-05T06:37:13.620Z,27.44
2022-08-05T06:39:41.282Z,27.00
2022-08-05T06:42:08.303Z,26.63
2022-08-05T06:44:37.194Z,26.93
2022-08-05T06:47:06.313Z,26.54
2022-08-05T06:50:01.730Z,27.12
2022-08-05T06:52:37.958Z,26.94
2022-08-05T06:55:09.798Z,27.20
2022-08-05T06:58:03.081Z,26.82
2022-08-05T07:00:26.900Z,26.90
2022-08-05T07:02:56.348Z,27.09
2022-08-05T07:05:36.890Z,27.12
2022-08-05T07:08:05.045Z,27.38
2022-08-05T07:10:32.687Z,27.45
2022-08-05T07:13:39.518Z,27.33
2022-08-05T07:17:55.912Z,27.36
2022-08-05T07:19:10.208Z,27.73
2022-08-05T07:22:00.216Z,27.54
2022-08-05T07:24:29.915Z,27.02
2022-08-05T07:26:58.832Z,26.93
2022-08-05T07:30:25.728Z,27.12
2022-08-05T07:32:15.686Z,27.71
2022-08-05T07:34:42.545Z,27.80
2022-08-05T07:37:11.647Z,28.27
2022-08-05T07:40:25.913Z,27.84
2022-08-05T07:42:33.530Z,27.60
2022-08-05T07:45:00.994Z,28.33
2022-08-05T07:47:27.528Z,28.27
2022-08-05T07:50:10.143Z,28.36
2022-08-05T07:52:41.145Z,28.53
2022-08-05T07:55:16.057Z,28.54
2022-08-05T07:58:02.844Z,28.44
2022-08-05T08:00:30.376Z,28.70
2022-08-05T08:03:13.753Z,28.57
2022-08-05T08:05:47.640Z,29.30
2022-08-05T08:08:20.234Z,29.26
2022-08-05T08:10:49.022Z,29.70
2022-08-05T08:13:21.891Z,29.46
2022-08-05T08:16:50.850Z,29.49
2022-08-05T08:18:50.685Z,29.39
2022-08-05T08:21:17.639Z,29.48
2022-08-05T08:24:01.409Z,29.80
2022-08-05T08:26:34.620Z,29.74
2022-08-05T08:29:29.442Z,30.11
2022-08-05T08:31:55.624Z,29.94
2022-08-05T08:34:30.187Z,30.00
2022-08-05T08:37:01.747Z,29.44
2022-08-05T08:39:31.666Z,30.05
2022-08-05T08:42:33.735Z,30.15
2022-08-05T08:45:18.390Z,30.38
2022-08-05T08:48:10.711Z,30.43
2022-08-05T08:51:03.666Z,30.78
2022-08-05T08:53:37.566Z,31.14
2022-08-05T08:56:07.467Z,30.76
2022-08-05T08:58:43.332Z,31.55
2022-08-05T09:01:15.855Z,31.61
2022-08-05T09:03:47.591Z,32.03
2022-08-05T09:06:20.014Z,32.17
2022-08-05T09:08:48.586Z,31.35
2022-08-05T09:11:17.402Z,31.54
2022-08-05T09:14:54.786Z,31.53
2022-08-05T09:16:54.267Z,31.74
2022-08-05T09:19:23.921Z,32.11
2022-08-05T09:22:22.719Z,31.93
2022-08-05T09:24:44.981Z,31.23
2022-08-05T09:28:04.933Z,31.64
2022-08-05T09:30:28.683Z,31.53
2022-08-05T09:33:01.850Z,30.99
2022-08-05T09:35:29.457Z,31.26
2022-08-05T09:38:12.237Z,31.31
2022-08-05T09:40:44.484Z,31.47
2022-08-05T09:43:41.104Z,31.69
2022-08-05T09:46:27.388Z,32.07
2022-08-05T09:49:06.971Z,31.80
2022-08-05T09:51:48.779Z,31.78
2022-08-05T09:54:21.429Z,31.76
2022-08-05T09:56:57.428Z,31.99
2022-08-05T09:59:24.547Z,32.29
2022-08-05T10:01:58.130Z,31.62
2022-08-05T10:04:35.967Z,31.63
2022-08-05T10:07:19.954Z,32.06
2022-08-05T10:10:14.681Z,31.66
2022-08-05T10:12:49.300Z,32.00
2022-08-05T10:15:28.546Z,31.69
2022-08-05T10:18:03.753Z,31.12
2022-08-05T10:20:32.579Z,30.96
2022-08-05T10:23:01.063Z,31.72
2022-08-05T10:25:28.211Z,31.16
2022-08-05T10:28:13.381Z,31.22
2022-08-05T10:32:52.277Z,31.88
2022-08-05T10:33:35.330Z,31.91
2022-08-05T10:36:04.607Z,32.22
2022-08-05T10:38:34.931Z,31.89
2022-08-05T10:41:23.678Z,32.37
2022-08-05T10:44:01.402Z,31.94
2022-08-05T10:47:26.487Z,32.04
2022-08-05T10:50:33.192Z,32.13
2022-08-05T10:53:00.227Z,32.18
2022-08-05T10:55:27.589Z,32.58
2022-08-05T10:58:09.436Z,32.65
2022-08-05T11:00:45.837Z,32.55
2022-08-05T11:03:23.652Z,32.66
2022-08-05T11:06:15.867Z,32.63
2022-08-05T11:09:32.336Z,33.27
2022-08-05T11:12:28.548Z,33.02
2022-08-05T11:15:20.989Z,32.88
2022-08-05T11:17:58.768Z,32.12
2022-08-05T11:20:41.656Z,31.67
2022-08-05T11:23:56.918Z,31.62
2022-08-05T11:26:32.233Z,32.01
2022-08-05T11:29:13.301Z,32.29
2022-08-05T11:31:57.639Z,32.50
2022-08-05T11:34:50.806Z,32.57
2022-08-05T11:38:29.890Z,33.22
2022-08-05T11:41:00.833Z,33.25
2022-08-05T11:44:04.375Z,32.04
2022-08-05T11:46:32.442Z,32.21
2022-08-05T11:49:01.452Z,32.15
2022-08-05T11:51:43.702Z,32.28
2022-08-05T11:54:32.686Z,32.45
2022-08-05T11:57:02.257Z,33.13
2022-08-05T11:59:49.440Z,33.58
2022-08-05T12:02:29.715Z,33.56
2022-08-05T12:04:59.856Z,33.67
2022-08-05T12:08:07.981Z,33.12
2022-08-05T12:10:19.759Z,33.06
2022-08-05T12:12:46.628Z,33.09
2022-08-05T12:15:35.798Z,33.32
2022-08-05T12:18:10.450Z,33.36
2022-08-05T12:20:38.961Z,33.80
2022-08-05T12:23:11.997Z,33.96
2022-08-05T12:25:56.750Z,32.86
2022-08-05T12:28:35.050Z,32.39
2022-08-05T12:31:04.507Z,32.51
2022-08-05T12:33:36.787Z,32.65
2022-08-05T12:36:09.701Z,32.55
2022-08-05T12:38:39.746Z,32.55
2022-08-05T12:41:13.932Z,32.43
2022-08-05T12:43:55.732Z,32.64
2022-08-05T12:46:29.276Z,32.73
2022-08-05T12:49:20.267Z,32.97
2022-08-05T12:52:14.112Z,32.89
2022-08-05T12:54:51.052Z,32.70
2022-08-05T12:57:19.665Z,32.72
2022-08-05T13:01:57.348Z,32.99
2022-08-05T13:02:43.825Z,33.41
2022-08-05T13:05:19.620Z,33.01
2022-08-05T13:08:00.381Z,33.47
2022-08-05T13:10:31.805Z,33.35
2022-08-05T13:12:58.824Z,33.46
2022-08-05T13:15:41.480Z,33.51
2022-08-05T13:18:19.489Z,33.55
2022-08-05T13:20:49.270Z,33.53
2022-08-05T13:23:18.316Z,33.99
2022-08-05T13:25:59.584Z,34.50
2022-08-05T13:28:28.493Z,33.51
2022-08-05T13:30:57.911Z,33.43
2022-08-05T13:34:20.954Z,33.60
2022-08-05T13:36:14.601Z,33.75
2022-08-05T13:38:43.822Z,34.10
2022-08-05T13:41:11.613Z,33.83
2022-08-05T13:43:43.414Z,34.00
2022-08-05T13:46:11.687Z,34.20
2022-08-05T13:48:57.499Z,34.03
2022-08-05T13:51:40.202Z,34.31
2022-08-05T13:54:12.077Z,34.27
2022-08-05T13:56:39.847Z,34.13
2022-08-05T13:59:20.297Z,34.76
2022-08-05T14:01:57.469Z,34.53
2022-08-05T14:04:49.981Z,34.76
2022-08-05T14:08:00.389Z,34.57
2022-08-05T14:10:28.748Z,34.87
2022-08-05T14:12:57.157Z,34.68
2022-08-05T14:16:04.846Z,34.77
2022-08-05T14:18:15.271Z,34.68
2022-08-05T14:20:49.105Z,34.86
2022-08-05T14:23:26.223Z,35.00
2022-08-05T14:25:58.751Z,34.32
2022-08-05T14:28:32.296Z,34.60
2022-08-05T14:31:03.435Z,34.21
2022-08-05T14:33:59.436Z,34.57
2022-08-05T14:36:27.392Z,34.96
2022-08-05T14:38:54.031Z,35.07
2022-08-05T14:41:21.125Z,35.10
2022-08-05T14:43:59.084Z,35.33
2022-08-05T14:46:35.168Z,35.56
2022-08-05T14:49:07.764Z,35.51
2022-08-05T14:51:37.532Z,35.31
2022-08-05T14:54:26.080Z,34.93
2022-08-05T14:56:54.677Z,34.65
2022-08-05T14:59:21.809Z,34.89
2022-08-05T15:01:51.355Z,34.57
2022-08-05T15:04:22.830Z,34.96
2022-08-05T15:06:52.138Z,34.73
2022-08-05T15:09:52.657Z,34.10
2022-08-05T15:12:16.586Z,33.90
2022-08-05T15:14:49.602Z,34.34
2022-08-05T15:17:44.660Z,34.01
2022-08-05T15:20:07.092Z,33.83
2022-08-05T15:22:36.744Z,33.46
2022-08-05T15:25:13.615Z,33.66
2022-08-05T15:27:42.693Z,33.43
2022-08-05T15:30:14.197Z,33.53
2022-08-05T15:32:47.822Z,33.44
2022-08-05T15:35:15.033Z,33.28
2022-08-05T15:38:32.716Z,33.29
2022-08-05T15:41:02.713Z,32.90
2022-08-05T15:43:20.273Z,32.74
2022-08-05T15:46:00.474Z,32.80
2022-08-05T15:48:31.151Z,32.80
2022-08-05T15:51:03.621Z,33.14
2022-08-05T15:53:38.491Z,33.73
2022-08-05T15:56:18.216Z,34.11
2022-08-05T15:58:46.364Z,34.30
2022-08-05T16:01:18.158Z,34.20
2022-08-05T16:03:50.625Z,34.09
2022-08-05T16:06:20.206Z,34.24
2022-08-05T16:08:53.458Z,33.97
2022-08-05T16:11:42.937Z,33.77
2022-08-05T16:14:10.105Z,33.96
2022-08-05T16:16:47.197Z,33.84
2022-08-05T16:19:19.185Z,33.60
2022-08-05T16:22:03.607Z,33.60
2022-08-05T16:24:41.177Z,33.66
2022-08-05T16:27:32.272Z,33.91
2022-08-05T16:30:23.073Z,33.91
2022-08-05T16:32:54.934Z,34.18
2022-08-05T16:35:24.882Z,33.98
2022-08-05T16:38:13.676Z,34.14
2022-08-05T16:40:52.316Z,33.88
2022-08-05T16:43:28.926Z,33.83
2022-08-05T16:46:03.478Z,33.60
2022-08-05T16:48:37.539Z,33.39
2022-08-05T16:51:09.469Z,33.10
2022-08-05T16:54:05.862Z,32.62
2022-08-05T16:56:29.592Z,32.56
2022-08-05T16:58:57.259Z,32.50
2022-08-05T17:01:24.303Z,32.32
2022-08-05T17:03:52.081Z,32.20
2022-08-05T17:06:19.756Z,32.12
2022-08-05T17:08:52.973Z,31.77
2022-08-05T17:11:25.477Z,31.64
2022-08-05T17:14:05.573Z,31.63
2022-08-05T17:16:37.718Z,31.44
2022-08-05T17:19:07.658Z,31.27
2022-08-05T17:21:37.240Z,31.05
2022-08-05T17:24:28.393Z,30.32
2022-08-05T17:27:03.350Z,30.16
2022-08-05T17:29:33.772Z,30.03
2022-08-05T17:32:08.337Z,30.07
2022-08-05T17:34:37.818Z,29.84
2022-08-05T17:37:27.237Z,29.60
2022-08-05T17:39:51.271Z,29.24
2022-08-05T17:42:26.997Z,29.43
2022-08-05T17:44:56.610Z,29.02
2022-08-05T17:47:23.649Z,28.95
2022-08-05T17:50:03.602Z,29.01
2022-08-05T17:52:35.166Z,28.84
2022-08-05T17:55:20.928Z,28.16
2022-08-05T17:57:50.688Z,28.32
2022-08-05T18:00:17.593Z,28.23
2022-08-05T18:02:49.988Z,28.08
2022-08-05T18:05:21.514Z,27.90
2022-08-05T18:07:48.416Z,27.74
2022-08-05T18:10:21.018Z,27.66
2022-08-05T18:12:51.399Z,27.35
2022-08-05T18:15:18.066Z,27.53
2022-08-05T18:18:01.211Z,27.46
2022-08-05T18:20:32.119Z,27.21
2022-08-05T18:23:11.449Z,26.99
2022-08-05T18:25:44.888Z,27.19
2022-08-05T18:28:17.758Z,26.49
2022-08-05T18:30:53.956Z,26.13
2022-08-05T18:33:24.337Z,26.24
2022-08-05T18:36:03.710Z,26.13
2022-08-05T18:38:36.716Z,26.19
2022-08-05T18:41:56.411Z,26.18
2022-08-05T18:43:56.499Z,26.20
2022-08-05T18:46:28.955Z,26.28
2022-08-05T18:49:19.827Z,26.18
2022-08-05T18:52:09.003Z,26.11
2022-08-05T18:54:41.239Z,25.72
2022-08-05T18:57:15.765Z,25.39
2022-08-05T19:00:02.545Z,25.71
2022-08-05T19:02:29.637Z,25.09
2022-08-05T19:05:02.847Z,25.12
2022-08-05T19:07:48.073Z,25.10
2022-08-05T19:10:28.229Z,25.16
2022-08-05T19:12:56.582Z,25.31
2022-08-05T19:15:57.236Z,24.94
2022-08-05T19:18:21.959Z,24.78
2022-08-05T19:20:53.739Z,25.02
2022-08-05T19:24:06.958Z,24.81
2022-08-05T19:26:11.174Z,24.83
2022-08-05T19:28:43.231Z,24.82
2022-08-05T19:31:17.692Z,25.01
2022-08-05T19:33:48.576Z,25.00
2022-08-05T19:36:26.756Z,25.00
2022-08-05T19:39:01.006Z,24.62
2022-08-05T19:42:05.478Z,24.65
2022-08-05T19:44:19.253Z,24.14
2022-08-05T19:46:46.126Z,23.81
2022-08-05T19:49:16.892Z,23.90
2022-08-05T19:52:05.598Z,24.04
2022-08-05T19:54:37.294Z,24.02
2022-08-05T19:57:09.310Z,24.07
2022-08-05T20:00:02.072Z,24.07
2022-08-05T20:02:25.954Z,23.68
2022-08-05T20:04:58.402Z,23.89
2022-08-05T20:07:46.538Z,23.70
2022-08-05T20:10:15.174Z,24.09
2022-08-05T20:12:46.358Z,24.06
2022-08-05T20:15:48.468Z,24.11
2022-08-05T20:18:32.895Z,24.13
2022-08-05T20:21:00.082Z,23.88
2022-08-05T20:23:40.033Z,23.89
2022-08-05T20:26:19.938Z,23.95
2022-08-05T20:28:48.654Z,23.98
2022-08-05T20:31:21.879Z,24.00
2022-08-05T20:33:55.614Z,23.85
2022-08-05T20:36:25.865Z,23.54
2022-08-05T20:38:54.390Z,23.74
2022-08-05T20:41:26.848Z,23.46
2022-08-05T20:43:59.988Z,22.98
2022-08-05T20:46:33.877Z,22.64
2022-08-05T20:49:00.400Z,22.27
2022-08-05T20:51:33.963Z,22.09
2022-08-05T20:56:42.107Z,21.63
2022-08-05T20:59:18.925Z,21.53
2022-08-05T21:01:52.047Z,21.44
2022-08-05T21:04:21.140Z,21.32
2022-08-05T21:06:54.057Z,21.32
2022-08-05T21:09:20.809Z,21.50
2022-08-05T21:12:10.728Z,21.26
2022-08-05T21:14:35.344Z,21.07
2022-08-05T21:17:05.075Z,21.00
2022-08-05T21:19:47.555Z,21.24
2022-08-05T21:22:23.377Z,21.27
2022-08-05T21:24:54.871Z,21.16
2022-08-05T21:27:25.007Z,21.10
2022-08-05T21:29:52.442Z,21.00
2022-08-05T21:32:20.924Z,20.89
2022-08-05T21:35:06.669Z,20.94
2022-08-05T21:37:41.233Z,20.79
2022-08-05T21:40:13.124Z,20.98
2022-08-05T21:42:46.760Z,20.97
2022-08-05T21:45:24.669Z,21.05
2022-08-05T21:48:06.460Z,21.21
2022-08-05T21:50:34.828Z,21.24
2022-08-05T21:53:16.683Z,21.16
2022-08-05T21:56:05.752Z,21.02
2022-08-05T21:58:36.687Z,20.50
2022-08-05T22:01:11.136Z,20.82
2022-08-05T22:03:54.025Z,20.68
2022-08-05T22:06:35.537Z,20.69
2022-08-05T22:09:14.589Z,20.57
2022-08-05T22:11:42.733Z,20.35
2022-08-05T22:14:34.265Z,20.25
2022-08-05T22:17:08.394Z,20.25
2022-08-05T22:20:03.080Z,20.26
2022-08-05T22:22:28.144Z,19.92
2022-08-05T22:25:20.986Z,20.24
2022-08-05T22:28:08.439Z,20.27
2022-08-05T22:30:44.090Z,20.41
2022-08-05T22:33:57.849Z,20.39
2022-08-05T22:36:17.329Z,20.19
2022-08-05T22:38:48.070Z,20.45
2022-08-05T22:42:04.398Z,19.86
2022-08-05T22:44:06.900Z,19.78
2022-08-05T22:46:40.018Z,20.08
2022-08-05T22:49:12.033Z,20.12
2022-08-05T22:52:06.673Z,20.23
2022-08-05T22:54:35.450Z,20.14
2022-08-05T22:57:02.818Z,20.32
2022-08-05T22:59:46.405Z,20.47
2022-08-05T23:02:29.272Z,20.41
2022-08-05T23:04:57.966Z,20.00
2022-08-05T23:07:28.480Z,20.06
2022-08-05T23:10:01.957Z,20.14
2022-08-05T23:12:32.884Z,20.19
2022-08-05T23:15:03.348Z,20.15
2022-08-05T23:17:37.276Z,20.12
2022-08-05T23:20:20.105Z,20.06
2022-08-05T23:22:50.453Z,20.08
2022-08-05T23:25:50.870Z,20.10
2022-08-05T23:28:12.120Z,20.11
2022-08-05T23:30:43.581Z,20.10
2022-08-05T23:33:16.359Z,19.79
2022-08-05T23:35:56.244Z,19.97
2022-08-05T23:38:26.725Z,19.97
2022-08-05T23:40:55.725Z,19.98
2022-08-05T23:43:25.423Z,20.04
2022-08-05T23:46:19.900Z,19.80
2022-08-05T23:49:00.999Z,19.73
2022-08-05T23:51:53.663Z,19.68
2022-08-05T23:54:26.625Z,19.68
2022-08-05T23:57:04.172Z,19.75
